This is the latest recevied weather packets stored in our database for station/object DO7VLR-5. If no packets are shown the sender has not sent any weather packets the latest 1 day(s).
| Time | Temp. | Humidity | Pressure | Rain* | Wind** | Luminosity | Snow |
|---|---|---|---|---|---|---|---|
| 1778086817 | 13.33° C | 82% | 1006.8 hPa | 0 mm | - | - | - |
| 1778085017 | 13.89° C | 81% | 1006.9 hPa | 0 mm | - | - | - |
| 1778083217 | 14.44° C | 80% | 1006.6 hPa | 0 mm | - | - | - |
| 1778077816 | 13.33° C | 89% | 1006.4 hPa | 0.25 mm | - | - | - |
| 1778076016 | 13.89° C | 86% | 1006.3 hPa | 0 mm | - | - | - |
| 1778074217 | 16.11° C | 74% | 1006.2 hPa | 0 mm | - | - | - |
| 1778061617 | 13.33° C | 87% | 1005.9 hPa | 0 mm | - | - | - |
| 1778059816 | 12.78° C | 88% | 1006 hPa | 0 mm | - | - | - |
| 1778054416 | 12.22° C | 89% | 1005.4 hPa | 0 mm | - | - | - |
| 1778052618 | 12.22° C | 89% | 1005.6 hPa | 0 mm | - | - | - |
| 1778049019 | 11.67° C | 90% | 1005.6 hPa | 0 mm | - | - | - |
| 1778045417 | 11.67° C | 93% | 1005.2 hPa | 0 mm | - | - | - |
| 1778043617 | 11.67° C | 93% | 1005.2 hPa | 0 mm | - | - | - |
| 1778041817 | 11.67° C | 94% | 1005.4 hPa | 0 mm | - | - | - |
| 1778038217 | 12.22° C | 94% | 1005.8 hPa | 0 mm | - | - | - |
| 1778032817 | 12.78° C | 95% | 1005.8 hPa | 0 mm | - | - | - |
| 1778031016 | 12.78° C | 95% | 1005.9 hPa | 0.25 mm | - | - | - |
| 1778027416 | 12.78° C | 95% | 1006.6 hPa | 0 mm | - | - | - |
| 1778013017 | 13.33° C | 94% | 1007.1 hPa | 0 mm | - | - | - |
| 1778011217 | 13.33° C | 94% | 1007.1 hPa | 0 mm | - | - | - |
| 1778009417 | 13.33° C | 93% | 1006.7 hPa | 0.25 mm | - | - | - |
* Rain latest hour (hover to see other rain measurements)
** Current wind speed in m/s (hover to see current wind gust speed)